createdAt,value
2024-01-07T00:00:19.897Z,99.99
2024-01-07T00:01:19.858Z,99.99
2024-01-07T00:02:19.671Z,99.99
2024-01-07T00:03:19.658Z,99.99
2024-01-07T00:04:19.637Z,99.99
2024-01-07T00:05:19.863Z,99.99
2024-01-07T00:06:19.638Z,99.99
2024-01-07T00:07:19.666Z,99.99
2024-01-07T00:08:19.607Z,99.99
2024-01-07T00:09:19.534Z,99.99
2024-01-07T00:10:19.511Z,99.99
2024-01-07T00:11:19.561Z,99.99
2024-01-07T00:12:19.509Z,99.99
2024-01-07T00:13:19.630Z,99.99
2024-01-07T00:14:19.518Z,99.99
2024-01-07T00:15:19.484Z,99.99
2024-01-07T00:16:19.475Z,99.99
2024-01-07T00:17:19.561Z,99.99
2024-01-07T00:18:19.463Z,99.99
2024-01-07T00:19:19.568Z,99.99
2024-01-07T00:20:19.398Z,99.99
2024-01-07T00:21:19.466Z,99.99
2024-01-07T00:22:19.341Z,99.99
2024-01-07T00:23:19.391Z,99.99
2024-01-07T00:24:19.310Z,99.99
2024-01-07T00:25:19.398Z,99.99
2024-01-07T00:26:19.320Z,99.99
2024-01-07T00:27:19.356Z,99.99
2024-01-07T00:28:19.307Z,99.99
2024-01-07T00:29:19.274Z,99.99
2024-01-07T00:30:19.286Z,99.99
2024-01-07T00:31:19.405Z,99.99
2024-01-07T00:32:19.234Z,99.99
2024-01-07T00:33:19.309Z,99.99
2024-01-07T00:34:19.362Z,99.99
2024-01-07T00:35:19.182Z,99.99
2024-01-07T00:36:19.190Z,99.99
2024-01-07T00:37:19.164Z,99.99
2024-01-07T00:38:19.237Z,99.99
2024-01-07T00:39:19.176Z,99.99
2024-01-07T00:40:19.153Z,99.99
2024-01-07T00:41:19.161Z,99.99
2024-01-07T00:42:19.174Z,99.99
2024-01-07T00:43:19.075Z,99.99
2024-01-07T00:44:19.114Z,99.99
2024-01-07T00:45:19.041Z,99.99
2024-01-07T00:46:19.053Z,99.99
2024-01-07T00:47:19.157Z,99.99
2024-01-07T00:48:19.160Z,99.99
2024-01-07T00:49:26.557Z,99.99
2024-01-07T00:50:18.934Z,99.99
2024-01-07T00:51:18.959Z,99.99
2024-01-07T00:52:18.944Z,99.99
2024-01-07T00:53:18.920Z,99.99
2024-01-07T00:54:18.913Z,99.99
2024-01-07T00:55:18.926Z,99.99
2024-01-07T00:56:18.998Z,99.99
2024-01-07T00:57:18.924Z,99.99
2024-01-07T00:58:18.913Z,99.99
2024-01-07T00:59:18.879Z,99.99
2024-01-07T01:00:18.912Z,99.99
2024-01-07T01:01:18.898Z,99.99
2024-01-07T01:02:18.823Z,99.99
2024-01-07T01:03:18.848Z,99.99
2024-01-07T01:04:18.805Z,99.99
2024-01-07T01:05:18.847Z,99.99
2024-01-07T01:06:18.761Z,99.99
2024-01-07T01:07:18.711Z,99.99
2024-01-07T01:08:18.711Z,99.99
2024-01-07T01:09:18.698Z,99.99
2024-01-07T01:10:18.682Z,99.99
2024-01-07T01:11:18.732Z,99.99
2024-01-07T01:12:18.665Z,99.99
2024-01-07T01:13:18.621Z,99.99
2024-01-07T01:14:18.616Z,99.99
2024-01-07T01:15:18.626Z,99.99
2024-01-07T01:16:20.088Z,99.99
2024-01-07T01:17:18.592Z,99.99
2024-01-07T01:18:18.633Z,99.99
2024-01-07T01:19:18.598Z,99.99
2024-01-07T01:20:18.560Z,99.99
2024-01-07T01:21:18.538Z,99.99
2024-01-07T01:22:18.706Z,99.99
2024-01-07T01:23:18.549Z,99.99
2024-01-07T01:24:18.508Z,99.99
2024-01-07T01:25:18.500Z,99.99
2024-01-07T01:26:18.462Z,99.99
2024-01-07T01:27:18.471Z,99.99
2024-01-07T01:28:18.480Z,99.99
2024-01-07T01:29:18.439Z,99.99
2024-01-07T01:30:18.436Z,99.99
2024-01-07T01:31:18.451Z,99.99
2024-01-07T01:32:18.395Z,99.99
2024-01-07T01:33:18.479Z,99.99
2024-01-07T01:34:18.595Z,99.99
2024-01-07T01:35:18.343Z,99.99
2024-01-07T01:36:18.329Z,99.99
2024-01-07T01:37:18.300Z,99.99
2024-01-07T01:38:18.346Z,99.99
2024-01-07T01:39:18.303Z,99.99
2024-01-07T01:40:18.284Z,99.99
2024-01-07T01:41:18.273Z,99.99
2024-01-07T01:42:18.243Z,99.99
2024-01-07T01:43:18.214Z,99.99
2024-01-07T01:44:18.214Z,99.99
2024-01-07T01:45:18.230Z,99.99
2024-01-07T01:46:18.203Z,99.99
2024-01-07T01:47:18.168Z,99.99
2024-01-07T01:48:18.223Z,99.99
2024-01-07T01:49:18.277Z,99.99
2024-01-07T01:50:18.195Z,99.99
2024-01-07T01:51:18.158Z,99.99
2024-01-07T01:52:18.202Z,99.99
2024-01-07T01:53:18.129Z,99.99
2024-01-07T01:54:18.126Z,99.99
2024-01-07T01:55:18.052Z,99.99
2024-01-07T01:56:18.052Z,99.99
2024-01-07T01:57:18.045Z,99.99
2024-01-07T01:58:18.054Z,99.99
2024-01-07T02:00:39.619Z,99.99
2024-01-07T02:01:39.609Z,99.99
2024-01-07T02:02:39.530Z,99.99
2024-01-07T02:03:39.473Z,99.99
2024-01-07T02:04:39.480Z,99.99
2024-01-07T02:05:39.428Z,99.99
2024-01-07T02:06:39.447Z,99.99
2024-01-07T02:07:39.461Z,99.99
2024-01-07T02:08:39.440Z,99.99
2024-01-07T02:09:39.370Z,99.99
2024-01-07T02:10:41.008Z,99.99
2024-01-07T02:11:39.343Z,99.99
2024-01-07T02:12:39.469Z,99.99
2024-01-07T02:13:39.343Z,99.99
2024-01-07T02:14:39.335Z,99.99
2024-01-07T02:15:39.420Z,99.99
2024-01-07T02:16:39.300Z,99.99
2024-01-07T02:17:39.312Z,99.99
2024-01-07T02:18:39.288Z,99.99
2024-01-07T02:19:39.339Z,99.99
2024-01-07T02:20:39.215Z,99.99
2024-01-07T02:21:39.245Z,99.99
2024-01-07T02:22:39.208Z,99.99
2024-01-07T02:23:39.238Z,99.99
2024-01-07T02:24:39.206Z,99.99
2024-01-07T02:25:39.155Z,99.99
2024-01-07T02:26:39.177Z,99.99
2024-01-07T02:27:39.173Z,99.99
2024-01-07T02:28:39.138Z,99.99
2024-01-07T02:29:39.154Z,99.99
2024-01-07T02:30:39.203Z,99.99
2024-01-07T02:31:39.307Z,99.99
2024-01-07T02:32:39.376Z,99.99
2024-01-07T02:33:39.130Z,99.99
2024-01-07T02:34:39.050Z,99.99
2024-01-07T02:35:39.024Z,99.99
2024-01-07T02:36:39.090Z,99.99
2024-01-07T02:37:38.991Z,99.99
2024-01-07T02:38:38.992Z,99.99
2024-01-07T02:39:39.136Z,99.99
2024-01-07T02:40:38.970Z,99.99
2024-01-07T02:41:38.955Z,99.99
2024-01-07T02:42:39.016Z,99.99
2024-01-07T02:43:38.913Z,99.99
2024-01-07T02:44:38.897Z,99.99
2024-01-07T02:45:38.898Z,99.99
2024-01-07T02:46:38.896Z,99.99
2024-01-07T02:47:38.891Z,99.99
2024-01-07T02:48:38.972Z,99.99
2024-01-07T02:49:39.076Z,99.99
2024-01-07T02:50:38.823Z,99.99
2024-01-07T02:51:38.849Z,99.99
2024-01-07T02:52:38.788Z,99.99
2024-01-07T02:53:38.787Z,99.99
2024-01-07T02:54:38.817Z,99.99
2024-01-07T02:55:38.824Z,99.99
2024-01-07T02:56:39.576Z,99.99
2024-01-07T02:57:38.789Z,99.99
2024-01-07T02:58:38.768Z,99.99
2024-01-07T02:59:38.740Z,99.99
2024-01-07T03:00:38.789Z,99.99
2024-01-07T03:01:38.778Z,99.99
2024-01-07T03:02:38.685Z,99.99
2024-01-07T03:03:38.951Z,99.99
2024-01-07T03:04:38.656Z,99.99
2024-01-07T03:05:38.712Z,99.99
2024-01-07T03:06:38.675Z,99.99
2024-01-07T03:07:38.612Z,99.99
2024-01-07T03:08:38.650Z,99.99
2024-01-07T03:09:38.646Z,99.99
2024-01-07T03:10:38.591Z,99.99
2024-01-07T03:11:38.576Z,99.99
2024-01-07T03:12:38.567Z,99.99
2024-01-07T03:13:38.532Z,99.99
2024-01-07T03:14:38.509Z,99.99
2024-01-07T03:15:38.541Z,99.99
2024-01-07T03:16:38.506Z,99.99
2024-01-07T03:17:38.526Z,99.99
2024-01-07T03:18:38.564Z,99.99
2024-01-07T03:19:38.491Z,99.99
2024-01-07T03:20:38.448Z,99.99
2024-01-07T03:21:38.486Z,99.99
2024-01-07T03:22:38.438Z,99.99
2024-01-07T03:23:38.433Z,99.99
2024-01-07T03:24:38.400Z,99.99
2024-01-07T03:25:38.362Z,99.99
2024-01-07T03:26:38.428Z,99.99
2024-01-07T03:27:38.392Z,99.99
2024-01-07T03:28:38.347Z,99.99
2024-01-07T03:29:38.326Z,99.99
2024-01-07T03:30:38.383Z,99.99
2024-01-07T03:31:38.348Z,99.99
2024-01-07T03:32:38.299Z,99.99
2024-01-07T03:33:38.401Z,99.99
2024-01-07T03:34:38.345Z,99.99
2024-01-07T03:35:38.261Z,99.99
2024-01-07T03:36:38.239Z,99.99
2024-01-07T03:37:38.208Z,99.99
2024-01-07T03:38:38.189Z,99.99
2024-01-07T03:39:38.227Z,99.99
2024-01-07T03:40:38.173Z,99.99
2024-01-07T03:41:38.154Z,99.99
2024-01-07T03:42:38.200Z,99.99
2024-01-07T03:43:38.204Z,99.99
2024-01-07T03:44:38.230Z,99.99
2024-01-07T03:45:38.234Z,99.99
2024-01-07T03:46:38.102Z,99.99
2024-01-07T03:47:38.173Z,99.99
2024-01-07T03:48:38.250Z,99.99
2024-01-07T03:49:38.224Z,99.99
2024-01-07T03:50:38.034Z,99.99
2024-01-07T03:51:38.072Z,99.99
2024-01-07T03:52:38.053Z,99.99
2024-01-07T03:53:38.105Z,99.99
2024-01-07T03:54:37.999Z,99.99
2024-01-07T03:55:37.992Z,99.99
2024-01-07T03:56:37.952Z,99.99
2024-01-07T03:57:38.075Z,99.99
2024-01-07T03:58:37.947Z,99.99
2024-01-07T03:59:37.920Z,99.99
2024-01-07T04:00:38.124Z,99.99
2024-01-07T04:01:38.016Z,99.99
2024-01-07T04:02:37.933Z,99.99
2024-01-07T04:03:37.924Z,99.99
2024-01-07T04:04:37.925Z,99.99
2024-01-07T04:05:37.841Z,99.99
2024-01-07T04:06:37.890Z,99.99
2024-01-07T04:07:37.814Z,99.99
2024-01-07T04:08:37.801Z,99.99
2024-01-07T04:09:37.843Z,99.99
2024-01-07T04:10:37.771Z,99.99
2024-01-07T04:11:37.773Z,99.99
2024-01-07T04:12:37.780Z,99.99
2024-01-07T04:13:37.767Z,99.99
2024-01-07T04:14:37.744Z,99.99
2024-01-07T04:15:37.801Z,99.99
2024-01-07T04:16:37.692Z,99.99
2024-01-07T04:17:37.731Z,99.99
2024-01-07T04:18:37.759Z,99.99
2024-01-07T04:19:37.747Z,99.99
2024-01-07T04:20:37.652Z,99.99
2024-01-07T04:21:37.658Z,99.99
2024-01-07T04:22:37.622Z,99.99
2024-01-07T04:23:37.623Z,99.99
2024-01-07T04:24:37.632Z,99.99
2024-01-07T04:25:37.669Z,99.99
2024-01-07T04:26:37.588Z,99.99
2024-01-07T04:27:37.572Z,99.99
2024-01-07T04:28:37.540Z,99.99
2024-01-07T04:29:37.524Z,99.99
2024-01-07T04:30:37.564Z,99.99
2024-01-07T04:31:37.628Z,99.99
2024-01-07T04:32:37.549Z,99.99
2024-01-07T04:33:37.509Z,99.99
2024-01-07T04:34:37.547Z,99.99
2024-01-07T04:35:37.477Z,99.99
2024-01-07T04:36:37.485Z,99.99
2024-01-07T04:37:37.499Z,99.99
2024-01-07T04:38:37.419Z,99.99
2024-01-07T04:39:37.512Z,99.99
2024-01-07T04:40:37.366Z,99.99
2024-01-07T04:41:37.405Z,99.99
2024-01-07T04:42:37.395Z,99.99
2024-01-07T04:43:37.346Z,99.99
2024-01-07T04:44:37.352Z,99.99
2024-01-07T04:45:37.352Z,99.99
2024-01-07T04:46:37.329Z,99.99
2024-01-07T04:47:37.372Z,99.99
2024-01-07T04:48:37.409Z,99.99
2024-01-07T04:49:37.411Z,99.99
2024-01-07T04:50:37.243Z,99.99
2024-01-07T04:51:37.262Z,99.99
2024-01-07T04:52:37.270Z,99.99
2024-01-07T04:53:37.207Z,99.99
2024-01-07T04:54:37.229Z,99.99
2024-01-07T04:55:37.210Z,99.99
2024-01-07T04:56:37.194Z,99.99
2024-01-07T04:57:37.210Z,99.99
2024-01-07T04:58:37.165Z,99.99
2024-01-07T04:59:37.147Z,99.99
2024-01-07T05:00:37.205Z,99.99
2024-01-07T05:01:37.206Z,99.99
2024-01-07T05:02:37.092Z,99.99
2024-01-07T05:03:37.202Z,99.99
2024-01-07T05:04:37.287Z,99.99
2024-01-07T05:05:37.039Z,99.99
2024-01-07T05:06:37.254Z,99.99
2024-01-07T05:07:37.036Z,99.99
2024-01-07T05:08:37.009Z,99.99
2024-01-07T05:09:37.065Z,99.99
2024-01-07T05:10:37.040Z,99.99
2024-01-07T05:11:36.966Z,99.99
2024-01-07T05:12:36.997Z,99.99
2024-01-07T05:13:36.953Z,99.99
2024-01-07T05:14:36.939Z,99.99
2024-01-07T05:15:36.985Z,99.99
2024-01-07T05:16:36.922Z,99.99
2024-01-07T05:17:36.917Z,99.99
2024-01-07T05:18:37.008Z,99.99
2024-01-07T05:19:36.960Z,99.99
2024-01-07T05:20:36.854Z,99.99
2024-01-07T05:21:36.928Z,99.99
2024-01-07T05:22:36.821Z,99.99
2024-01-07T05:23:36.819Z,99.99
2024-01-07T05:24:36.846Z,99.99
2024-01-07T05:25:36.782Z,99.99
2024-01-07T05:26:36.798Z,99.99
2024-01-07T05:27:36.780Z,99.99
2024-01-07T05:28:36.772Z,99.99
2024-01-07T05:29:36.749Z,99.99
2024-01-07T05:30:36.795Z,99.99
2024-01-07T05:31:36.773Z,99.99
2024-01-07T05:32:36.843Z,99.99
2024-01-07T05:33:36.810Z,99.99
2024-01-07T05:34:36.783Z,99.99
2024-01-07T05:35:36.666Z,99.99
2024-01-07T05:36:36.694Z,99.99
2024-01-07T05:37:36.632Z,99.99
2024-01-07T05:38:36.647Z,99.99
2024-01-07T05:39:36.745Z,99.99
2024-01-07T05:40:36.579Z,99.99
2024-01-07T05:41:36.578Z,99.99
2024-01-07T05:42:36.598Z,99.99
2024-01-07T05:43:36.560Z,99.99
2024-01-07T05:44:36.595Z,99.99
2024-01-07T05:45:36.692Z,99.99
2024-01-07T05:46:36.517Z,99.99
2024-01-07T05:47:36.601Z,99.99
2024-01-07T05:48:36.543Z,99.99
2024-01-07T05:49:36.608Z,99.99
2024-01-07T05:50:36.505Z,99.99
2024-01-07T05:51:36.457Z,99.99
2024-01-07T05:52:36.437Z,99.99
2024-01-07T05:53:36.416Z,99.99
2024-01-07T05:54:36.462Z,99.99
2024-01-07T05:55:36.408Z,99.99
2024-01-07T05:56:36.380Z,99.99
2024-01-07T05:57:36.411Z,99.99
2024-01-07T05:58:36.363Z,99.99
2024-01-07T05:59:36.329Z,99.99
2024-01-07T06:00:36.377Z,99.99
2024-01-07T06:01:36.541Z,99.99
2024-01-07T06:02:36.292Z,99.99
2024-01-07T06:03:36.571Z,99.99
2024-01-07T06:04:36.336Z,99.99
2024-01-07T06:05:36.298Z,99.99
2024-01-07T06:06:36.442Z,99.99
2024-01-07T06:07:36.268Z,99.99
2024-01-07T06:08:36.299Z,99.99
2024-01-07T06:09:36.262Z,99.99
2024-01-07T06:10:36.187Z,99.99
2024-01-07T06:11:36.204Z,99.99
2024-01-07T06:12:36.285Z,99.99
2024-01-07T06:13:36.160Z,99.99
2024-01-07T06:14:36.161Z,99.99
2024-01-07T06:15:36.192Z,99.99
2024-01-07T06:16:36.153Z,99.99
2024-01-07T06:17:36.117Z,99.99
2024-01-07T06:18:38.536Z,99.99
2024-01-07T06:19:36.228Z,99.99
2024-01-07T06:20:36.058Z,99.99
2024-01-07T06:21:36.073Z,99.99
2024-01-07T06:22:36.043Z,99.99
2024-01-07T06:23:36.019Z,99.99
2024-01-07T06:24:36.146Z,99.99
2024-01-07T06:25:36.011Z,99.99
2024-01-07T06:26:36.028Z,99.99
2024-01-07T06:27:36.035Z,99.99
2024-01-07T06:28:35.950Z,99.99
2024-01-07T06:29:35.935Z,99.99
2024-01-07T06:30:36.059Z,99.99
2024-01-07T06:31:35.973Z,99.99
2024-01-07T06:32:35.941Z,99.99
2024-01-07T06:33:36.131Z,99.99
2024-01-07T06:34:35.931Z,99.99
2024-01-07T06:35:35.885Z,99.99
2024-01-07T06:36:35.959Z,99.99
2024-01-07T06:37:35.831Z,99.99
2024-01-07T06:38:35.832Z,99.95
2024-01-07T06:39:35.847Z,99.99
2024-01-07T06:40:35.821Z,99.99
2024-01-07T06:41:35.807Z,99.99
2024-01-07T06:42:35.810Z,99.99
2024-01-07T06:43:35.838Z,99.99
2024-01-07T06:44:35.749Z,99.99
2024-01-07T06:45:35.800Z,99.99
2024-01-07T06:46:35.727Z,99.95
2024-01-07T06:47:35.754Z,99.99
2024-01-07T06:48:35.863Z,99.99
2024-01-07T06:49:35.842Z,99.99
2024-01-07T06:50:35.676Z,99.74
2024-01-07T06:51:35.738Z,99.74
2024-01-07T06:52:35.647Z,99.74
2024-01-07T06:53:35.630Z,99.63
2024-01-07T06:54:35.784Z,99.22
2024-01-07T06:55:35.796Z,99.01
2024-01-07T06:56:35.677Z,99.32
2024-01-07T06:57:35.638Z,99.43
2024-01-07T06:58:35.596Z,99.22
2024-01-07T06:59:35.620Z,99.22
2024-01-07T07:00:35.649Z,99.22
2024-01-07T07:01:35.594Z,98.49
2024-01-07T07:02:35.582Z,99.01
2024-01-07T07:03:35.641Z,99.11
2024-01-07T07:04:35.639Z,98.90
2024-01-07T07:05:35.500Z,98.59
2024-01-07T07:06:35.556Z,98.85
2024-01-07T07:07:35.481Z,98.85
2024-01-07T07:08:35.450Z,99.01
2024-01-07T07:09:35.546Z,99.16
2024-01-07T07:10:35.414Z,98.74
2024-01-07T07:11:35.438Z,98.74
2024-01-07T07:12:35.483Z,98.63
2024-01-07T07:13:35.364Z,99.16
2024-01-07T07:14:35.403Z,99.26
2024-01-07T07:15:35.499Z,99.37
2024-01-07T07:16:35.328Z,99.79
2024-01-07T07:17:35.471Z,99.47
2024-01-07T07:18:35.466Z,99.57
2024-01-07T07:19:35.395Z,99.79
2024-01-07T07:20:35.293Z,99.89
2024-01-07T07:21:35.313Z,99.57
2024-01-07T07:22:35.305Z,99.57
2024-01-07T07:23:35.239Z,99.68
2024-01-07T07:24:35.251Z,99.57
2024-01-07T07:25:35.210Z,99.68
2024-01-07T07:26:35.220Z,99.79
2024-01-07T07:27:35.285Z,99.99
2024-01-07T07:28:35.313Z,99.99
2024-01-07T07:29:35.164Z,99.68
2024-01-07T07:30:35.297Z,99.99
2024-01-07T07:31:35.205Z,99.99
2024-01-07T07:32:35.206Z,99.99
2024-01-07T07:33:35.323Z,99.68
2024-01-07T07:34:35.201Z,99.68
2024-01-07T07:35:35.084Z,99.89
2024-01-07T07:36:35.097Z,99.26
2024-01-07T07:37:35.101Z,98.95
2024-01-07T07:38:35.186Z,99.16
2024-01-07T07:39:35.090Z,98.85
2024-01-07T07:40:35.026Z,99.16
2024-01-07T07:41:35.139Z,99.26
2024-01-07T07:42:35.104Z,99.16
2024-01-07T07:43:35.006Z,98.63
2024-01-07T07:44:34.984Z,98.63
2024-01-07T07:45:35.139Z,98.95
2024-01-07T07:46:35.171Z,99.05
2024-01-07T07:47:34.973Z,98.95
2024-01-07T07:48:35.006Z,98.63
2024-01-07T07:49:35.000Z,98.63
2024-01-07T07:50:34.910Z,98.53
2024-01-07T07:51:34.975Z,98.11
2024-01-07T07:52:34.893Z,98.22
2024-01-07T07:53:34.845Z,98.53
2024-01-07T07:54:36.295Z,98.32
2024-01-07T07:55:34.876Z,98.11
2024-01-07T07:56:34.810Z,97.91
2024-01-07T07:57:34.902Z,98.11
2024-01-07T07:58:34.787Z,98.01
2024-01-07T07:59:34.818Z,98.11
2024-01-07T08:00:34.834Z,98.22
2024-01-07T08:01:34.781Z,98.32
2024-01-07T08:02:34.866Z,98.43
2024-01-07T08:03:34.873Z,98.22
2024-01-07T08:04:34.870Z,98.53
2024-01-07T08:05:34.748Z,98.63
2024-01-07T08:06:34.728Z,98.63
2024-01-07T08:07:34.739Z,97.91
2024-01-07T08:08:35.931Z,97.59
2024-01-07T08:09:34.694Z,97.59
2024-01-07T08:10:34.639Z,97.70
2024-01-07T08:11:36.758Z,97.70
2024-01-07T08:12:34.631Z,97.70
2024-01-07T08:13:34.715Z,97.38
2024-01-07T08:14:34.572Z,97.59
2024-01-07T08:15:34.784Z,97.59
2024-01-07T08:16:34.549Z,97.80
2024-01-07T08:17:34.699Z,97.91
2024-01-07T08:18:34.655Z,97.07
2024-01-07T08:19:34.678Z,97.07
2024-01-07T08:20:34.494Z,97.07
2024-01-07T08:21:34.581Z,97.07
2024-01-07T08:22:34.463Z,97.28
2024-01-07T08:23:34.491Z,97.17
2024-01-07T08:24:34.505Z,97.17
2024-01-07T08:25:34.522Z,97.59
2024-01-07T08:26:34.411Z,97.80
2024-01-07T08:27:34.504Z,97.80
2024-01-07T08:28:34.388Z,97.91
2024-01-07T08:29:34.391Z,98.01
2024-01-07T08:30:34.457Z,97.59
2024-01-07T08:31:34.733Z,97.59
2024-01-07T08:32:34.395Z,97.80
2024-01-07T08:33:34.604Z,97.70
2024-01-07T08:34:34.381Z,97.07
2024-01-07T08:35:34.299Z,95.92
2024-01-07T08:36:34.426Z,96.03
2024-01-07T08:37:34.485Z,96.13
2024-01-07T08:38:34.276Z,95.50
2024-01-07T08:39:34.303Z,95.44
2024-01-07T08:40:34.270Z,95.61
2024-01-07T08:41:34.261Z,95.44
2024-01-07T08:42:34.229Z,95.72
2024-01-07T08:43:34.180Z,95.09
2024-01-07T08:44:34.201Z,95.19
2024-01-07T08:45:34.219Z,95.61
2024-01-07T08:46:34.206Z,95.50
2024-01-07T08:47:39.679Z,95.40
2024-01-07T08:48:35.324Z,95.09
2024-01-07T08:49:34.666Z,95.44
2024-01-07T08:50:34.102Z,95.40
2024-01-07T08:51:34.179Z,95.55
2024-01-07T08:52:34.096Z,95.86
2024-01-07T08:53:34.065Z,95.92
2024-01-07T08:54:34.114Z,95.82
2024-01-07T08:55:34.056Z,95.29
2024-01-07T08:56:34.028Z,95.03
2024-01-07T08:57:34.118Z,94.82
2024-01-07T08:58:33.990Z,95.13
2024-01-07T08:59:33.993Z,95.65
2024-01-07T09:00:34.036Z,95.61
2024-01-07T09:01:34.072Z,95.82
2024-01-07T09:02:33.933Z,96.07
2024-01-07T09:03:34.103Z,95.92
2024-01-07T09:04:34.042Z,95.50
2024-01-07T09:05:33.927Z,94.78
2024-01-07T09:06:33.916Z,94.57
2024-01-07T09:07:34.076Z,95.03
2024-01-07T09:08:33.869Z,94.40
2024-01-07T09:09:33.962Z,94.50
2024-01-07T09:10:33.860Z,94.82
2024-01-07T09:11:33.905Z,95.13
2024-01-07T09:12:33.930Z,95.29
2024-01-07T09:13:33.803Z,95.61
2024-01-07T09:14:33.863Z,95.29
2024-01-07T09:15:33.817Z,95.40
2024-01-07T09:16:33.789Z,94.98
2024-01-07T09:17:33.824Z,94.98
2024-01-07T09:18:33.870Z,94.98
2024-01-07T09:19:33.959Z,94.92
2024-01-07T09:20:33.711Z,95.03
2024-01-07T09:21:33.795Z,94.82
2024-01-07T09:22:33.675Z,94.71
2024-01-07T09:23:33.676Z,94.71
2024-01-07T09:24:33.675Z,94.61
2024-01-07T09:25:33.708Z,94.71
2024-01-07T09:26:33.711Z,94.82
2024-01-07T09:27:33.700Z,94.82
2024-01-07T09:28:33.681Z,95.23
2024-01-07T09:29:33.588Z,94.19
2024-01-07T09:30:33.737Z,93.88
2024-01-07T09:31:33.687Z,93.77
2024-01-07T09:32:37.210Z,93.77
2024-01-07T09:33:33.692Z,93.46
2024-01-07T09:34:33.570Z,93.77
2024-01-07T09:35:33.550Z,93.67
2024-01-07T09:36:33.538Z,93.88
2024-01-07T09:37:33.529Z,94.29
2024-01-07T09:38:33.609Z,94.19
2024-01-07T09:41:04.103Z,94.67
2024-01-07T09:43:00.972Z,94.61
2024-01-07T09:43:56.575Z,94.82
2024-01-07T09:45:02.853Z,94.92
2024-01-07T09:45:56.655Z,94.82
2024-01-07T09:46:56.896Z,94.40
2024-01-07T09:47:56.817Z,94.82
2024-01-07T09:48:56.695Z,94.92
2024-01-07T09:49:56.698Z,95.55
2024-01-07T09:50:56.867Z,95.76
2024-01-07T09:51:56.770Z,96.07
2024-01-07T09:52:56.660Z,95.44
2024-01-07T09:53:56.718Z,95.09
2024-01-07T09:54:56.722Z,94.61
2024-01-07T09:56:07.057Z,95.03
2024-01-07T09:56:57.411Z,94.71
2024-01-07T09:57:56.459Z,94.09
2024-01-07T09:58:56.384Z,94.19
2024-01-07T09:59:56.402Z,94.19
2024-01-07T10:00:56.306Z,94.09
2024-01-07T10:01:56.793Z,94.46
2024-01-07T10:02:56.290Z,94.98
2024-01-07T10:03:56.321Z,94.67
2024-01-07T10:04:56.278Z,94.25
2024-01-07T10:05:56.284Z,94.25
2024-01-07T10:06:56.276Z,94.04
2024-01-07T10:08:19.810Z,93.84
2024-01-07T10:09:05.605Z,93.63
2024-01-07T10:10:00.887Z,93.94
2024-01-07T10:11:01.436Z,93.73
2024-01-07T10:12:01.018Z,93.35
2024-01-07T10:13:03.593Z,92.94
2024-01-07T10:13:56.128Z,93.04
2024-01-07T10:15:09.631Z,93.35
2024-01-07T10:15:58.745Z,93.25
2024-01-07T10:17:02.281Z,93.46
2024-01-07T10:17:57.298Z,93.98
2024-01-07T10:18:56.644Z,93.98
2024-01-07T10:19:56.207Z,93.15
2024-01-07T10:20:56.392Z,93.25
2024-01-07T10:21:56.326Z,92.94
2024-01-07T10:23:08.266Z,93.35
2024-01-07T10:23:57.072Z,93.46
2024-01-07T10:24:56.026Z,93.21
2024-01-07T10:25:55.966Z,93.63
2024-01-07T10:26:55.970Z,93.00
2024-01-07T10:27:55.940Z,93.21
2024-01-07T10:28:55.962Z,93.00
2024-01-07T10:29:56.069Z,92.21
2024-01-07T10:30:56.000Z,92.10
2024-01-07T10:32:04.930Z,92.31
2024-01-07T10:32:56.154Z,92.83
2024-01-07T10:34:03.552Z,93.46
2024-01-07T10:34:56.092Z,92.94
2024-01-07T10:35:55.852Z,92.00
2024-01-07T10:36:55.871Z,92.31
2024-01-07T10:37:55.887Z,92.63
2024-01-07T10:38:55.812Z,91.89
2024-01-07T10:39:55.850Z,92.21
2024-01-07T10:40:55.797Z,92.10
2024-01-07T10:41:55.785Z,92.00
2024-01-07T10:42:55.781Z,91.27
2024-01-07T10:43:55.835Z,91.79
2024-01-07T10:44:55.841Z,92.00
2024-01-07T10:45:55.718Z,92.41
2024-01-07T10:46:55.703Z,92.10
2024-01-07T10:47:55.787Z,91.69
2024-01-07T10:48:55.763Z,91.16
2024-01-07T10:49:56.868Z,90.58
2024-01-07T10:50:55.649Z,90.58
2024-01-07T10:51:55.648Z,90.78
2024-01-07T10:52:55.636Z,91.10
2024-01-07T10:53:55.996Z,91.20
2024-01-07T10:54:55.650Z,91.27
2024-01-07T10:55:57.577Z,90.95
2024-01-07T10:56:55.600Z,90.75
2024-01-07T10:57:55.588Z,90.85
2024-01-07T10:58:55.551Z,91.27
2024-01-07T10:59:55.542Z,90.95
2024-01-07T11:00:55.647Z,90.85
2024-01-07T11:01:57.409Z,90.33
2024-01-07T11:02:55.512Z,90.18
2024-01-07T11:03:55.549Z,89.81
2024-01-07T11:04:55.660Z,89.49
2024-01-07T11:05:55.641Z,89.39
2024-01-07T11:06:55.656Z,88.87
2024-01-07T11:07:55.419Z,88.45
2024-01-07T11:08:55.424Z,88.59
2024-01-07T11:09:55.432Z,89.11
2024-01-07T11:10:55.445Z,89.39
2024-01-07T11:11:55.460Z,89.39
2024-01-07T11:12:55.421Z,89.39
2024-01-07T11:13:57.997Z,89.70
2024-01-07T11:14:55.308Z,89.91
2024-01-07T11:15:55.369Z,88.76
2024-01-07T11:16:55.327Z,88.45
2024-01-07T11:17:55.368Z,87.71
2024-01-07T11:18:55.392Z,88.13
2024-01-07T11:19:57.202Z,88.45
2024-01-07T11:20:55.270Z,87.82
2024-01-07T11:21:55.255Z,88.24
2024-01-07T11:22:55.229Z,87.93
2024-01-07T11:23:55.359Z,87.93
2024-01-07T11:24:55.206Z,87.93
2024-01-07T11:25:55.257Z,87.51
2024-01-07T11:26:55.154Z,87.93
2024-01-07T11:27:55.207Z,87.51
2024-01-07T11:28:55.127Z,87.61
2024-01-07T11:29:55.169Z,87.51
2024-01-07T11:30:55.264Z,87.30
2024-01-07T11:31:55.302Z,86.99
2024-01-07T11:32:55.114Z,87.09
2024-01-07T11:33:55.167Z,86.77
2024-01-07T11:34:55.491Z,86.67
2024-01-07T11:35:55.176Z,86.84
2024-01-07T11:36:55.098Z,86.53
2024-01-07T11:37:55.169Z,86.94
2024-01-07T11:38:55.281Z,87.05
2024-01-07T11:39:55.101Z,86.53
2024-01-07T11:40:55.025Z,85.80
2024-01-07T11:41:55.693Z,86.00
2024-01-07T11:42:54.966Z,86.43
2024-01-07T11:43:55.138Z,86.94
2024-01-07T11:44:54.933Z,86.53
2024-01-07T11:45:55.021Z,85.94
2024-01-07T11:46:54.907Z,86.25
2024-01-07T11:47:54.998Z,86.05
2024-01-07T11:48:54.944Z,85.83
2024-01-07T11:49:55.124Z,86.05
2024-01-07T11:50:56.553Z,86.25
2024-01-07T11:51:54.876Z,85.56
2024-01-07T11:52:54.835Z,85.56
2024-01-07T11:54:03.819Z,85.77
2024-01-07T11:54:54.871Z,85.88
2024-01-07T11:55:54.891Z,84.83
2024-01-07T11:56:54.840Z,85.04
2024-01-07T11:57:54.948Z,84.73
2024-01-07T11:58:54.794Z,84.31
2024-01-07T11:59:54.759Z,84.52
2024-01-07T12:00:54.782Z,84.62
2024-01-07T12:01:54.845Z,84.41
2024-01-07T12:02:54.764Z,84.52
2024-01-07T12:03:54.965Z,84.00
2024-01-07T12:04:54.743Z,84.31
2024-01-07T12:05:54.723Z,83.78
2024-01-07T12:06:54.689Z,83.64
2024-01-07T12:07:54.684Z,82.70
2024-01-07T12:08:54.638Z,81.87
2024-01-07T12:09:54.807Z,81.87
2024-01-07T12:10:54.626Z,81.41
2024-01-07T12:11:54.686Z,80.47
2024-01-07T12:12:54.689Z,80.30
2024-01-07T12:13:54.559Z,80.99
2024-01-07T12:14:54.560Z,80.96
2024-01-07T12:15:54.621Z,81.02
2024-01-07T12:16:54.573Z,80.78
2024-01-07T12:17:54.643Z,79.22
2024-01-07T12:18:54.619Z,79.32
2024-01-07T12:19:54.549Z,78.73
2024-01-07T12:20:54.580Z,80.02
2024-01-07T12:21:54.461Z,79.95
2024-01-07T12:22:54.485Z,81.21
2024-01-07T12:23:54.476Z,81.45
2024-01-07T12:24:54.501Z,81.38
2024-01-07T12:25:55.303Z,82.18
2024-01-07T12:26:54.431Z,82.07
2024-01-07T12:27:54.526Z,81.80
2024-01-07T12:28:54.472Z,82.12
2024-01-07T12:29:55.132Z,81.70
2024-01-07T12:30:54.420Z,82.64
2024-01-07T12:31:54.461Z,82.01
2024-01-07T12:32:54.369Z,81.90
2024-01-07T12:33:54.712Z,82.05
2024-01-07T12:34:54.476Z,82.64
2024-01-07T12:35:54.338Z,82.32
2024-01-07T12:36:54.281Z,81.95
2024-01-07T12:37:54.246Z,81.73
2024-01-07T12:38:54.240Z,81.63
2024-01-07T12:39:54.219Z,81.90
2024-01-07T12:40:54.328Z,81.42
2024-01-07T12:41:54.192Z,81.00
2024-01-07T12:42:54.270Z,80.90
2024-01-07T12:43:54.186Z,80.69
2024-01-07T12:44:54.142Z,80.65
2024-01-07T12:45:54.224Z,80.24
2024-01-07T12:46:54.137Z,79.40
2024-01-07T12:47:54.178Z,79.82
2024-01-07T12:48:54.228Z,79.99
2024-01-07T12:49:54.175Z,79.29
2024-01-07T12:50:54.080Z,79.61
2024-01-07T12:51:54.142Z,79.92
2024-01-07T12:52:54.092Z,81.00
2024-01-07T12:53:54.021Z,81.32
2024-01-07T12:54:54.058Z,81.73
2024-01-07T12:55:54.023Z,81.84